sensor_id;sensor_type;location;lat;lon;timestamp;P1;durP1;ratioP1;P2;durP2;ratioP2
6661;SDS011;3367;48.714;8.994;2023-03-24T00:00:44;6.63;;;4.10;;
6661;SDS011;3367;48.714;8.994;2023-03-24T00:03:11;4.83;;;4.33;;
6661;SDS011;3367;48.714;8.994;2023-03-24T00:05:41;7.33;;;4.63;;
6661;SDS011;3367;48.714;8.994;2023-03-24T00:08:08;4.83;;;4.00;;
6661;SDS011;3367;48.714;8.994;2023-03-24T00:10:36;4.97;;;3.80;;
6661;SDS011;3367;48.714;8.994;2023-03-24T00:13:04;3.27;;;2.97;;
6661;SDS011;3367;48.714;8.994;2023-03-24T00:15:31;2.83;;;2.60;;
6661;SDS011;3367;48.714;8.994;2023-03-24T00:17:58;3.70;;;3.30;;
6661;SDS011;3367;48.714;8.994;2023-03-24T00:20:25;3.23;;;3.03;;
6661;SDS011;3367;48.714;8.994;2023-03-24T00:22:53;3.30;;;3.00;;
6661;SDS011;3367;48.714;8.994;2023-03-24T00:25:23;4.43;;;3.80;;
6661;SDS011;3367;48.714;8.994;2023-03-24T00:27:55;6.23;;;3.60;;
6661;SDS011;3367;48.714;8.994;2023-03-24T00:30:22;3.93;;;3.50;;
6661;SDS011;3367;48.714;8.994;2023-03-24T00:32:49;7.57;;;3.90;;
6661;SDS011;3367;48.714;8.994;2023-03-24T00:35:16;5.27;;;3.47;;
6661;SDS011;3367;48.714;8.994;2023-03-24T00:37:44;4.20;;;3.37;;
6661;SDS011;3367;48.714;8.994;2023-03-24T00:40:12;4.70;;;3.13;;
6661;SDS011;3367;48.714;8.994;2023-03-24T00:42:40;3.20;;;2.80;;
6661;SDS011;3367;48.714;8.994;2023-03-24T00:45:11;3.17;;;2.87;;
6661;SDS011;3367;48.714;8.994;2023-03-24T00:47:39;3.80;;;3.00;;
6661;SDS011;3367;48.714;8.994;2023-03-24T00:50:10;2.60;;;2.40;;
6661;SDS011;3367;48.714;8.994;2023-03-24T00:52:38;5.70;;;2.97;;
6661;SDS011;3367;48.714;8.994;2023-03-24T00:55:08;3.57;;;2.70;;
6661;SDS011;3367;48.714;8.994;2023-03-24T00:57:38;3.10;;;2.80;;
6661;SDS011;3367;48.714;8.994;2023-03-24T01:00:06;2.43;;;2.23;;
6661;SDS011;3367;48.714;8.994;2023-03-24T01:02:39;3.50;;;3.20;;
6661;SDS011;3367;48.714;8.994;2023-03-24T01:05:07;3.43;;;2.73;;
6661;SDS011;3367;48.714;8.994;2023-03-24T01:07:34;2.80;;;2.60;;
6661;SDS011;3367;48.714;8.994;2023-03-24T01:10:05;2.47;;;2.37;;
6661;SDS011;3367;48.714;8.994;2023-03-24T01:12:33;3.33;;;2.70;;
6661;SDS011;3367;48.714;8.994;2023-03-24T01:15:02;2.83;;;2.63;;
6661;SDS011;3367;48.714;8.994;2023-03-24T01:17:31;2.60;;;2.40;;
6661;SDS011;3367;48.714;8.994;2023-03-24T01:20:00;2.83;;;2.50;;
6661;SDS011;3367;48.714;8.994;2023-03-24T01:22:31;3.20;;;2.40;;
6661;SDS011;3367;48.714;8.994;2023-03-24T01:25:01;2.60;;;2.40;;
6661;SDS011;3367;48.714;8.994;2023-03-24T01:27:28;2.73;;;2.23;;
6661;SDS011;3367;48.714;8.994;2023-03-24T01:29:57;4.03;;;3.03;;
6661;SDS011;3367;48.714;8.994;2023-03-24T01:32:24;3.50;;;2.83;;
6661;SDS011;3367;48.714;8.994;2023-03-24T01:34:50;3.43;;;2.73;;
6661;SDS011;3367;48.714;8.994;2023-03-24T01:37:18;2.87;;;2.53;;
6661;SDS011;3367;48.714;8.994;2023-03-24T01:39:47;3.73;;;2.70;;
6661;SDS011;3367;48.714;8.994;2023-03-24T01:42:15;4.47;;;2.90;;
6661;SDS011;3367;48.714;8.994;2023-03-24T01:44:44;3.47;;;2.47;;
6661;SDS011;3367;48.714;8.994;2023-03-24T01:47:11;2.90;;;2.67;;
6661;SDS011;3367;48.714;8.994;2023-03-24T01:49:39;2.33;;;2.07;;
6661;SDS011;3367;48.714;8.994;2023-03-24T01:52:10;2.67;;;2.23;;
6661;SDS011;3367;48.714;8.994;2023-03-24T01:54:43;3.00;;;2.20;;
6661;SDS011;3367;48.714;8.994;2023-03-24T01:57:14;3.40;;;2.70;;
6661;SDS011;3367;48.714;8.994;2023-03-24T01:59:46;3.07;;;2.13;;
6661;SDS011;3367;48.714;8.994;2023-03-24T02:02:16;3.60;;;2.00;;
6661;SDS011;3367;48.714;8.994;2023-03-24T02:04:46;3.73;;;2.50;;
6661;SDS011;3367;48.714;8.994;2023-03-24T02:07:19;3.40;;;2.57;;
6661;SDS011;3367;48.714;8.994;2023-03-24T02:10:04;2.53;;;2.33;;
6661;SDS011;3367;48.714;8.994;2023-03-24T02:12:33;2.67;;;2.47;;
6661;SDS011;3367;48.714;8.994;2023-03-24T02:15:00;3.27;;;2.90;;
6661;SDS011;3367;48.714;8.994;2023-03-24T02:17:35;2.90;;;2.70;;
6661;SDS011;3367;48.714;8.994;2023-03-24T02:20:29;2.90;;;2.60;;
6661;SDS011;3367;48.714;8.994;2023-03-24T02:26:24;2.67;;;2.47;;
6661;SDS011;3367;48.714;8.994;2023-03-24T02:29:02;2.20;;;2.10;;
6661;SDS011;3367;48.714;8.994;2023-03-24T02:31:54;3.03;;;2.83;;
6661;SDS011;3367;48.714;8.994;2023-03-24T02:37:36;3.50;;;2.60;;
6661;SDS011;3367;48.714;8.994;2023-03-24T02:40:24;2.67;;;2.33;;
6661;SDS011;3367;48.714;8.994;2023-03-24T02:43:04;3.17;;;2.87;;
6661;SDS011;3367;48.714;8.994;2023-03-24T02:45:43;3.53;;;3.23;;
6661;SDS011;3367;48.714;8.994;2023-03-24T02:48:20;6.50;;;3.63;;
6661;SDS011;3367;48.714;8.994;2023-03-24T02:50:52;4.00;;;2.50;;
6661;SDS011;3367;48.714;8.994;2023-03-24T02:53:26;3.33;;;3.03;;
6661;SDS011;3367;48.714;8.994;2023-03-24T02:56:00;3.20;;;2.90;;
6661;SDS011;3367;48.714;8.994;2023-03-24T02:58:34;2.63;;;2.43;;
6661;SDS011;3367;48.714;8.994;2023-03-24T03:04:27;3.57;;;2.30;;
6661;SDS011;3367;48.714;8.994;2023-03-24T03:06:58;3.37;;;2.43;;
6661;SDS011;3367;48.714;8.994;2023-03-24T03:09:33;2.83;;;2.50;;
6661;SDS011;3367;48.714;8.994;2023-03-24T03:12:04;3.90;;;2.30;;
6661;SDS011;3367;48.714;8.994;2023-03-24T03:14:34;3.20;;;2.90;;
6661;SDS011;3367;48.714;8.994;2023-03-24T03:17:05;4.57;;;2.70;;
6661;SDS011;3367;48.714;8.994;2023-03-24T03:19:37;2.07;;;1.97;;
6661;SDS011;3367;48.714;8.994;2023-03-24T03:22:09;2.80;;;2.60;;
6661;SDS011;3367;48.714;8.994;2023-03-24T03:24:40;2.67;;;2.43;;
6661;SDS011;3367;48.714;8.994;2023-03-24T03:27:13;2.93;;;2.53;;
6661;SDS011;3367;48.714;8.994;2023-03-24T03:29:45;3.50;;;2.70;;
6661;SDS011;3367;48.714;8.994;2023-03-24T03:32:19;2.40;;;2.20;;
6661;SDS011;3367;48.714;8.994;2023-03-24T03:34:53;2.80;;;2.47;;
6661;SDS011;3367;48.714;8.994;2023-03-24T03:37:27;3.50;;;2.73;;
6661;SDS011;3367;48.714;8.994;2023-03-24T03:39:58;2.40;;;2.20;;
6661;SDS011;3367;48.714;8.994;2023-03-24T03:42:31;2.87;;;2.67;;
6661;SDS011;3367;48.714;8.994;2023-03-24T03:44:58;2.93;;;2.60;;
6661;SDS011;3367;48.714;8.994;2023-03-24T03:47:24;4.60;;;2.90;;
6661;SDS011;3367;48.714;8.994;2023-03-24T03:49:51;2.40;;;2.13;;
6661;SDS011;3367;48.714;8.994;2023-03-24T03:52:18;3.17;;;2.87;;
6661;SDS011;3367;48.714;8.994;2023-03-24T03:54:45;4.43;;;2.80;;
6661;SDS011;3367;48.714;8.994;2023-03-24T03:57:13;2.23;;;2.10;;
6661;SDS011;3367;48.714;8.994;2023-03-24T03:59:41;2.30;;;2.20;;
6661;SDS011;3367;48.714;8.994;2023-03-24T04:02:12;3.20;;;2.70;;
6661;SDS011;3367;48.714;8.994;2023-03-24T04:07:46;4.20;;;2.63;;
6661;SDS011;3367;48.714;8.994;2023-03-24T04:10:28;9.00;;;3.10;;
6661;SDS011;3367;48.714;8.994;2023-03-24T04:13:07;4.23;;;2.90;;
6661;SDS011;3367;48.714;8.994;2023-03-24T04:15:45;4.23;;;2.87;;
6661;SDS011;3367;48.714;8.994;2023-03-24T04:18:23;3.63;;;2.83;;
6661;SDS011;3367;48.714;8.994;2023-03-24T04:21:13;3.37;;;3.07;;
6661;SDS011;3367;48.714;8.994;2023-03-24T04:23:53;4.77;;;3.10;;
6661;SDS011;3367;48.714;8.994;2023-03-24T04:26:29;3.67;;;3.00;;
6661;SDS011;3367;48.714;8.994;2023-03-24T04:29:03;3.97;;;2.93;;
6661;SDS011;3367;48.714;8.994;2023-03-24T04:31:39;2.77;;;2.57;;
6661;SDS011;3367;48.714;8.994;2023-03-24T04:34:15;4.17;;;3.23;;
6661;SDS011;3367;48.714;8.994;2023-03-24T04:36:46;4.83;;;2.63;;
6661;SDS011;3367;48.714;8.994;2023-03-24T04:39:19;3.50;;;2.73;;
6661;SDS011;3367;48.714;8.994;2023-03-24T04:41:52;2.70;;;2.50;;
6661;SDS011;3367;48.714;8.994;2023-03-24T04:44:20;2.77;;;2.20;;
6661;SDS011;3367;48.714;8.994;2023-03-24T04:46:49;2.40;;;2.20;;
6661;SDS011;3367;48.714;8.994;2023-03-24T04:49:20;3.60;;;2.30;;
6661;SDS011;3367;48.714;8.994;2023-03-24T04:51:49;3.50;;;2.77;;
6661;SDS011;3367;48.714;8.994;2023-03-24T04:54:16;2.50;;;2.30;;
6661;SDS011;3367;48.714;8.994;2023-03-24T04:56:44;3.30;;;2.37;;
6661;SDS011;3367;48.714;8.994;2023-03-24T04:59:13;2.53;;;2.33;;
6661;SDS011;3367;48.714;8.994;2023-03-24T05:01:40;3.50;;;2.47;;
6661;SDS011;3367;48.714;8.994;2023-03-24T05:04:15;2.83;;;2.60;;
6661;SDS011;3367;48.714;8.994;2023-03-24T05:06:42;2.63;;;2.47;;
6661;SDS011;3367;48.714;8.994;2023-03-24T05:09:10;3.93;;;2.60;;
6661;SDS011;3367;48.714;8.994;2023-03-24T05:11:39;2.80;;;2.40;;
6661;SDS011;3367;48.714;8.994;2023-03-24T05:14:05;2.63;;;2.43;;
6661;SDS011;3367;48.714;8.994;2023-03-24T05:16:32;3.73;;;2.37;;
6661;SDS011;3367;48.714;8.994;2023-03-24T05:18:59;2.60;;;2.40;;
6661;SDS011;3367;48.714;8.994;2023-03-24T05:21:27;1.87;;;1.77;;
6661;SDS011;3367;48.714;8.994;2023-03-24T05:23:53;2.17;;;2.00;;
6661;SDS011;3367;48.714;8.994;2023-03-24T05:26:20;2.47;;;2.13;;
6661;SDS011;3367;48.714;8.994;2023-03-24T05:28:47;3.70;;;2.30;;
6661;SDS011;3367;48.714;8.994;2023-03-24T05:31:14;2.00;;;1.90;;
6661;SDS011;3367;48.714;8.994;2023-03-24T05:33:40;2.23;;;2.00;;
6661;SDS011;3367;48.714;8.994;2023-03-24T05:36:07;2.73;;;1.80;;
6661;SDS011;3367;48.714;8.994;2023-03-24T05:38:36;2.50;;;2.40;;
6661;SDS011;3367;48.714;8.994;2023-03-24T05:41:03;3.27;;;2.17;;
6661;SDS011;3367;48.714;8.994;2023-03-24T05:43:31;4.00;;;2.70;;
6661;SDS011;3367;48.714;8.994;2023-03-24T05:45:58;2.70;;;2.03;;
6661;SDS011;3367;48.714;8.994;2023-03-24T05:48:25;2.40;;;2.17;;
6661;SDS011;3367;48.714;8.994;2023-03-24T05:50:51;2.30;;;2.20;;
6661;SDS011;3367;48.714;8.994;2023-03-24T05:53:18;3.50;;;2.50;;
6661;SDS011;3367;48.714;8.994;2023-03-24T05:55:46;2.27;;;2.07;;
6661;SDS011;3367;48.714;8.994;2023-03-24T05:58:13;2.60;;;2.40;;
6661;SDS011;3367;48.714;8.994;2023-03-24T06:00:40;4.67;;;2.73;;
6661;SDS011;3367;48.714;8.994;2023-03-24T06:03:07;2.90;;;2.70;;
6661;SDS011;3367;48.714;8.994;2023-03-24T06:05:33;2.90;;;2.43;;
6661;SDS011;3367;48.714;8.994;2023-03-24T06:08:00;3.17;;;2.87;;
6661;SDS011;3367;48.714;8.994;2023-03-24T06:10:27;3.03;;;2.53;;
6661;SDS011;3367;48.714;8.994;2023-03-24T06:12:55;2.70;;;2.33;;
6661;SDS011;3367;48.714;8.994;2023-03-24T06:15:22;2.97;;;2.60;;
6661;SDS011;3367;48.714;8.994;2023-03-24T06:17:51;3.33;;;2.80;;
6661;SDS011;3367;48.714;8.994;2023-03-24T06:20:19;5.23;;;2.83;;
6661;SDS011;3367;48.714;8.994;2023-03-24T06:22:46;9.33;;;3.13;;
6661;SDS011;3367;48.714;8.994;2023-03-24T06:25:14;3.07;;;2.87;;
6661;SDS011;3367;48.714;8.994;2023-03-24T06:27:44;3.73;;;3.00;;
6661;SDS011;3367;48.714;8.994;2023-03-24T06:30:13;6.03;;;3.73;;
6661;SDS011;3367;48.714;8.994;2023-03-24T06:32:41;6.77;;;3.07;;
6661;SDS011;3367;48.714;8.994;2023-03-24T06:35:10;3.93;;;3.00;;
6661;SDS011;3367;48.714;8.994;2023-03-24T06:37:37;6.23;;;3.37;;
6661;SDS011;3367;48.714;8.994;2023-03-24T06:40:05;5.20;;;3.77;;
6661;SDS011;3367;48.714;8.994;2023-03-24T06:42:34;6.57;;;3.23;;
6661;SDS011;3367;48.714;8.994;2023-03-24T06:45:01;13.33;;;3.43;;
6661;SDS011;3367;48.714;8.994;2023-03-24T06:47:29;6.50;;;2.93;;
6661;SDS011;3367;48.714;8.994;2023-03-24T06:49:56;3.40;;;2.70;;
6661;SDS011;3367;48.714;8.994;2023-03-24T06:52:23;4.27;;;2.50;;
6661;SDS011;3367;48.714;8.994;2023-03-24T06:54:51;3.63;;;2.70;;
6661;SDS011;3367;48.714;8.994;2023-03-24T06:57:18;3.73;;;2.80;;
6661;SDS011;3367;48.714;8.994;2023-03-24T06:59:45;5.13;;;2.77;;
6661;SDS011;3367;48.714;8.994;2023-03-24T07:02:12;5.77;;;3.10;;
6661;SDS011;3367;48.714;8.994;2023-03-24T07:04:41;4.80;;;3.07;;
6661;SDS011;3367;48.714;8.994;2023-03-24T07:07:07;4.27;;;3.20;;
6661;SDS011;3367;48.714;8.994;2023-03-24T07:09:34;4.87;;;3.43;;
6661;SDS011;3367;48.714;8.994;2023-03-24T07:12:01;5.40;;;3.63;;
6661;SDS011;3367;48.714;8.994;2023-03-24T07:14:28;5.10;;;3.70;;
6661;SDS011;3367;48.714;8.994;2023-03-24T07:16:55;7.10;;;2.80;;
6661;SDS011;3367;48.714;8.994;2023-03-24T07:19:23;3.90;;;2.90;;
6661;SDS011;3367;48.714;8.994;2023-03-24T07:21:51;5.57;;;3.70;;
6661;SDS011;3367;48.714;8.994;2023-03-24T07:24:17;5.13;;;3.53;;
6661;SDS011;3367;48.714;8.994;2023-03-24T07:26:44;5.37;;;4.07;;
6661;SDS011;3367;48.714;8.994;2023-03-24T07:29:11;5.07;;;3.63;;
6661;SDS011;3367;48.714;8.994;2023-03-24T07:31:38;10.73;;;4.03;;
6661;SDS011;3367;48.714;8.994;2023-03-24T07:34:05;5.70;;;4.27;;
6661;SDS011;3367;48.714;8.994;2023-03-24T07:36:32;6.80;;;3.80;;
6661;SDS011;3367;48.714;8.994;2023-03-24T07:39:00;6.67;;;4.60;;
6661;SDS011;3367;48.714;8.994;2023-03-24T07:41:28;7.37;;;4.20;;
6661;SDS011;3367;48.714;8.994;2023-03-24T07:43:56;4.57;;;4.17;;
6661;SDS011;3367;48.714;8.994;2023-03-24T07:46:23;5.27;;;3.93;;
6661;SDS011;3367;48.714;8.994;2023-03-24T07:48:50;8.20;;;4.27;;
6661;SDS011;3367;48.714;8.994;2023-03-24T07:51:16;3.90;;;3.60;;
6661;SDS011;3367;48.714;8.994;2023-03-24T07:53:44;8.47;;;4.80;;
6661;SDS011;3367;48.714;8.994;2023-03-24T07:56:13;22.50;;;14.30;;
6661;SDS011;3367;48.714;8.994;2023-03-24T07:58:40;7.40;;;6.00;;
6661;SDS011;3367;48.714;8.994;2023-03-24T08:01:06;7.80;;;4.33;;
6661;SDS011;3367;48.714;8.994;2023-03-24T08:03:34;5.50;;;3.90;;
6661;SDS011;3367;48.714;8.994;2023-03-24T08:06:01;4.87;;;4.30;;
6661;SDS011;3367;48.714;8.994;2023-03-24T08:08:28;4.80;;;4.30;;
6661;SDS011;3367;48.714;8.994;2023-03-24T08:10:55;5.53;;;4.00;;
6661;SDS011;3367;48.714;8.994;2023-03-24T08:13:23;8.23;;;4.43;;
6661;SDS011;3367;48.714;8.994;2023-03-24T08:15:50;7.73;;;4.20;;
6661;SDS011;3367;48.714;8.994;2023-03-24T08:18:17;5.87;;;3.90;;
6661;SDS011;3367;48.714;8.994;2023-03-24T08:20:44;3.87;;;3.57;;
6661;SDS011;3367;48.714;8.994;2023-03-24T08:23:11;5.00;;;3.50;;
6661;SDS011;3367;48.714;8.994;2023-03-24T08:25:38;4.50;;;3.97;;
6661;SDS011;3367;48.714;8.994;2023-03-24T08:28:05;8.13;;;4.80;;
6661;SDS011;3367;48.714;8.994;2023-03-24T08:30:33;6.10;;;4.73;;
6661;SDS011;3367;48.714;8.994;2023-03-24T08:33:01;8.30;;;4.70;;
6661;SDS011;3367;48.714;8.994;2023-03-24T08:35:29;3.70;;;3.40;;
6661;SDS011;3367;48.714;8.994;2023-03-24T08:37:58;3.70;;;3.00;;
6661;SDS011;3367;48.714;8.994;2023-03-24T08:40:25;5.93;;;3.70;;
6661;SDS011;3367;48.714;8.994;2023-03-24T08:42:54;5.80;;;4.03;;
6661;SDS011;3367;48.714;8.994;2023-03-24T08:45:23;3.07;;;2.73;;
6661;SDS011;3367;48.714;8.994;2023-03-24T08:47:53;4.97;;;2.97;;
6661;SDS011;3367;48.714;8.994;2023-03-24T08:50:21;3.33;;;3.00;;
6661;SDS011;3367;48.714;8.994;2023-03-24T08:52:49;4.40;;;2.83;;
6661;SDS011;3367;48.714;8.994;2023-03-24T08:55:17;4.20;;;3.33;;
6661;SDS011;3367;48.714;8.994;2023-03-24T08:57:45;2.90;;;2.70;;
6661;SDS011;3367;48.714;8.994;2023-03-24T09:00:12;4.40;;;2.77;;
6661;SDS011;3367;48.714;8.994;2023-03-24T09:02:40;3.00;;;2.80;;
6661;SDS011;3367;48.714;8.994;2023-03-24T09:05:10;3.10;;;2.90;;
6661;SDS011;3367;48.714;8.994;2023-03-24T09:07:37;4.90;;;3.30;;
6661;SDS011;3367;48.714;8.994;2023-03-24T09:10:04;3.40;;;3.10;;
6661;SDS011;3367;48.714;8.994;2023-03-24T09:12:32;3.40;;;2.23;;
6661;SDS011;3367;48.714;8.994;2023-03-24T09:14:59;2.87;;;2.67;;
6661;SDS011;3367;48.714;8.994;2023-03-24T09:17:26;3.90;;;2.33;;
6661;SDS011;3367;48.714;8.994;2023-03-24T09:19:52;2.73;;;2.10;;
6661;SDS011;3367;48.714;8.994;2023-03-24T09:22:20;3.67;;;2.93;;
6661;SDS011;3367;48.714;8.994;2023-03-24T09:24:47;2.90;;;2.70;;
6661;SDS011;3367;48.714;8.994;2023-03-24T09:27:14;5.90;;;2.83;;
6661;SDS011;3367;48.714;8.994;2023-03-24T09:29:41;2.80;;;2.60;;
6661;SDS011;3367;48.714;8.994;2023-03-24T09:32:08;3.20;;;2.60;;
6661;SDS011;3367;48.714;8.994;2023-03-24T09:34:35;4.77;;;2.83;;
6661;SDS011;3367;48.714;8.994;2023-03-24T09:37:02;2.47;;;2.10;;
6661;SDS011;3367;48.714;8.994;2023-03-24T09:39:34;2.60;;;2.40;;
6661;SDS011;3367;48.714;8.994;2023-03-24T09:42:02;5.33;;;2.40;;
6661;SDS011;3367;48.714;8.994;2023-03-24T09:44:32;3.23;;;3.03;;
6661;SDS011;3367;48.714;8.994;2023-03-24T09:47:02;1.93;;;1.83;;
6661;SDS011;3367;48.714;8.994;2023-03-24T09:49:36;4.17;;;2.20;;
6661;SDS011;3367;48.714;8.994;2023-03-24T09:52:06;4.17;;;2.23;;
6661;SDS011;3367;48.714;8.994;2023-03-24T09:54:38;4.67;;;2.47;;
6661;SDS011;3367;48.714;8.994;2023-03-24T09:57:10;2.00;;;1.80;;
6661;SDS011;3367;48.714;8.994;2023-03-24T09:59:43;1.83;;;1.73;;
6661;SDS011;3367;48.714;8.994;2023-03-24T10:02:10;1.90;;;1.80;;
6661;SDS011;3367;48.714;8.994;2023-03-24T10:04:38;4.80;;;1.60;;
6661;SDS011;3367;48.714;8.994;2023-03-24T10:07:06;1.77;;;1.67;;
6661;SDS011;3367;48.714;8.994;2023-03-24T10:09:40;1.53;;;1.43;;
6661;SDS011;3367;48.714;8.994;2023-03-24T10:12:17;1.70;;;1.60;;
6661;SDS011;3367;48.714;8.994;2023-03-24T10:14:53;1.80;;;1.70;;
6661;SDS011;3367;48.714;8.994;2023-03-24T10:17:34;1.53;;;1.43;;
6661;SDS011;3367;48.714;8.994;2023-03-24T10:20:11;2.53;;;1.67;;
6661;SDS011;3367;48.714;8.994;2023-03-24T10:22:47;1.00;;;1.00;;
6661;SDS011;3367;48.714;8.994;2023-03-24T10:25:23;1.70;;;1.60;;
6661;SDS011;3367;48.714;8.994;2023-03-24T10:27:56;1.23;;;1.13;;
6661;SDS011;3367;48.714;8.994;2023-03-24T10:30:26;1.30;;;1.20;;
6661;SDS011;3367;48.714;8.994;2023-03-24T10:32:56;2.30;;;1.43;;
6661;SDS011;3367;48.714;8.994;2023-03-24T10:35:24;1.43;;;1.33;;
6661;SDS011;3367;48.714;8.994;2023-03-24T10:37:54;1.87;;;1.10;;
6661;SDS011;3367;48.714;8.994;2023-03-24T10:40:25;1.83;;;1.20;;
6661;SDS011;3367;48.714;8.994;2023-03-24T10:42:55;2.10;;;1.20;;
6661;SDS011;3367;48.714;8.994;2023-03-24T10:45:26;3.00;;;1.47;;
6661;SDS011;3367;48.714;8.994;2023-03-24T10:47:55;2.10;;;1.20;;
6661;SDS011;3367;48.714;8.994;2023-03-24T10:50:25;3.73;;;1.40;;
6661;SDS011;3367;48.714;8.994;2023-03-24T10:52:54;1.80;;;1.00;;
6661;SDS011;3367;48.714;8.994;2023-03-24T10:55:22;1.20;;;1.10;;
6661;SDS011;3367;48.714;8.994;2023-03-24T10:57:57;1.13;;;1.03;;
6661;SDS011;3367;48.714;8.994;2023-03-24T11:00:25;0.97;;;0.90;;
6661;SDS011;3367;48.714;8.994;2023-03-24T11:02:55;1.60;;;1.10;;
6661;SDS011;3367;48.714;8.994;2023-03-24T11:05:29;1.40;;;1.00;;
6661;SDS011;3367;48.714;8.994;2023-03-24T11:08:09;1.90;;;1.10;;
6661;SDS011;3367;48.714;8.994;2023-03-24T11:10:39;1.13;;;1.03;;
6661;SDS011;3367;48.714;8.994;2023-03-24T11:13:14;2.20;;;1.10;;
6661;SDS011;3367;48.714;8.994;2023-03-24T11:15:51;2.80;;;1.00;;
6661;SDS011;3367;48.714;8.994;2023-03-24T11:18:20;1.70;;;1.10;;
6661;SDS011;3367;48.714;8.994;2023-03-24T11:20:50;1.33;;;1.23;;
6661;SDS011;3367;48.714;8.994;2023-03-24T11:23:24;2.30;;;1.10;;
6661;SDS011;3367;48.714;8.994;2023-03-24T11:26:00;1.07;;;0.80;;
6661;SDS011;3367;48.714;8.994;2023-03-24T11:28:34;2.40;;;1.00;;
6661;SDS011;3367;48.714;8.994;2023-03-24T11:31:05;1.20;;;1.10;;
6661;SDS011;3367;48.714;8.994;2023-03-24T11:33:35;1.47;;;0.93;;
6661;SDS011;3367;48.714;8.994;2023-03-24T11:36:33;1.60;;;1.13;;
6661;SDS011;3367;48.714;8.994;2023-03-24T11:39:17;7.00;;;1.40;;
6661;SDS011;3367;48.714;8.994;2023-03-24T11:41:57;1.00;;;0.90;;
6661;SDS011;3367;48.714;8.994;2023-03-24T11:44:30;5.00;;;0.80;;
6661;SDS011;3367;48.714;8.994;2023-03-24T11:47:07;1.57;;;0.80;;
6661;SDS011;3367;48.714;8.994;2023-03-24T11:49:38;0.90;;;0.90;;
6661;SDS011;3367;48.714;8.994;2023-03-24T11:52:08;0.67;;;0.57;;
6661;SDS011;3367;48.714;8.994;2023-03-24T11:54:43;1.13;;;0.87;;
6661;SDS011;3367;48.714;8.994;2023-03-24T11:57:11;4.17;;;0.60;;
6661;SDS011;3367;48.714;8.994;2023-03-24T11:59:44;4.03;;;0.70;;
6661;SDS011;3367;48.714;8.994;2023-03-24T12:02:23;0.87;;;0.60;;
6661;SDS011;3367;48.714;8.994;2023-03-24T12:05:12;0.70;;;0.50;;
6661;SDS011;3367;48.714;8.994;2023-03-24T12:07:58;8.73;;;0.50;;
6661;SDS011;3367;48.714;8.994;2023-03-24T12:10:37;0.60;;;0.53;;
6661;SDS011;3367;48.714;8.994;2023-03-24T12:13:12;1.47;;;0.53;;
6661;SDS011;3367;48.714;8.994;2023-03-24T12:15:48;0.70;;;0.40;;
6661;SDS011;3367;48.714;8.994;2023-03-24T12:21:40;0.70;;;0.40;;
6661;SDS011;3367;48.714;8.994;2023-03-24T12:24:19;0.60;;;0.50;;
6661;SDS011;3367;48.714;8.994;2023-03-24T12:26:54;1.00;;;0.63;;
6661;SDS011;3367;48.714;8.994;2023-03-24T12:29:30;0.77;;;0.63;;
6661;SDS011;3367;48.714;8.994;2023-03-24T12:35:19;1.80;;;0.80;;
6661;SDS011;3367;48.714;8.994;2023-03-24T12:38:05;1.20;;;0.40;;
6661;SDS011;3367;48.714;8.994;2023-03-24T12:40:53;1.73;;;0.60;;
6661;SDS011;3367;48.714;8.994;2023-03-24T12:43:30;0.97;;;0.50;;
6661;SDS011;3367;48.714;8.994;2023-03-24T12:46:06;0.80;;;0.60;;
6661;SDS011;3367;48.714;8.994;2023-03-24T12:48:48;0.70;;;0.60;;
6661;SDS011;3367;48.714;8.994;2023-03-24T12:51:29;3.83;;;1.10;;
6661;SDS011;3367;48.714;8.994;2023-03-24T12:54:11;1.27;;;0.40;;
6661;SDS011;3367;48.714;8.994;2023-03-24T12:56:49;0.70;;;0.60;;
6661;SDS011;3367;48.714;8.994;2023-03-24T12:59:21;0.70;;;0.50;;
6661;SDS011;3367;48.714;8.994;2023-03-24T13:01:58;0.80;;;0.50;;
6661;SDS011;3367;48.714;8.994;2023-03-24T13:04:31;0.60;;;0.43;;
6661;SDS011;3367;48.714;8.994;2023-03-24T13:07:04;0.67;;;0.50;;
6661;SDS011;3367;48.714;8.994;2023-03-24T13:09:35;1.30;;;0.73;;
6661;SDS011;3367;48.714;8.994;2023-03-24T13:12:11;0.70;;;0.50;;
6661;SDS011;3367;48.714;8.994;2023-03-24T13:14:45;0.60;;;0.50;;
6661;SDS011;3367;48.714;8.994;2023-03-24T13:17:21;0.70;;;0.60;;
6661;SDS011;3367;48.714;8.994;2023-03-24T13:19:54;0.70;;;0.60;;
6661;SDS011;3367;48.714;8.994;2023-03-24T13:22:22;0.70;;;0.60;;
6661;SDS011;3367;48.714;8.994;2023-03-24T13:24:51;1.00;;;1.00;;
6661;SDS011;3367;48.714;8.994;2023-03-24T13:27:22;0.70;;;0.57;;
6661;SDS011;3367;48.714;8.994;2023-03-24T13:30:02;0.80;;;0.60;;
6661;SDS011;3367;48.714;8.994;2023-03-24T13:32:43;0.80;;;0.70;;
6661;SDS011;3367;48.714;8.994;2023-03-24T13:35:31;0.80;;;0.60;;
6661;SDS011;3367;48.714;8.994;2023-03-24T13:38:12;0.80;;;0.80;;
6661;SDS011;3367;48.714;8.994;2023-03-24T13:40:44;2.40;;;0.70;;
6661;SDS011;3367;48.714;8.994;2023-03-24T13:43:17;0.60;;;0.60;;
6661;SDS011;3367;48.714;8.994;2023-03-24T13:45:46;1.07;;;0.60;;
6661;SDS011;3367;48.714;8.994;2023-03-24T13:48:20;0.80;;;0.60;;
6661;SDS011;3367;48.714;8.994;2023-03-24T13:50:55;0.80;;;0.53;;
6661;SDS011;3367;48.714;8.994;2023-03-24T13:53:29;0.60;;;0.50;;
6661;SDS011;3367;48.714;8.994;2023-03-24T13:56:01;0.70;;;0.50;;
6661;SDS011;3367;48.714;8.994;2023-03-24T13:58:49;0.80;;;0.50;;
6661;SDS011;3367;48.714;8.994;2023-03-24T14:01:34;2.00;;;0.90;;
6661;SDS011;3367;48.714;8.994;2023-03-24T14:07:27;0.87;;;0.80;;
6661;SDS011;3367;48.714;8.994;2023-03-24T14:09:59;1.97;;;0.90;;
6661;SDS011;3367;48.714;8.994;2023-03-24T14:12:28;0.80;;;0.70;;
6661;SDS011;3367;48.714;8.994;2023-03-24T14:15:12;1.20;;;0.70;;
6661;SDS011;3367;48.714;8.994;2023-03-24T14:17:45;0.70;;;0.60;;
6661;SDS011;3367;48.714;8.994;2023-03-24T14:23:29;11.17;;;1.67;;
6661;SDS011;3367;48.714;8.994;2023-03-24T14:26:01;3.47;;;1.27;;
6661;SDS011;3367;48.714;8.994;2023-03-24T14:28:31;2.10;;;0.80;;
6661;SDS011;3367;48.714;8.994;2023-03-24T14:31:06;0.80;;;0.57;;
6661;SDS011;3367;48.714;8.994;2023-03-24T14:33:37;0.90;;;0.50;;
6661;SDS011;3367;48.714;8.994;2023-03-24T14:36:05;0.70;;;0.63;;
6661;SDS011;3367;48.714;8.994;2023-03-24T14:38:38;0.77;;;0.60;;
6661;SDS011;3367;48.714;8.994;2023-03-24T14:41:10;0.77;;;0.77;;
6661;SDS011;3367;48.714;8.994;2023-03-24T14:43:53;0.60;;;0.50;;
6661;SDS011;3367;48.714;8.994;2023-03-24T14:46:34;0.80;;;0.60;;
6661;SDS011;3367;48.714;8.994;2023-03-24T14:49:11;0.60;;;0.40;;
6661;SDS011;3367;48.714;8.994;2023-03-24T14:51:51;1.67;;;0.83;;
6661;SDS011;3367;48.714;8.994;2023-03-24T14:54:26;0.60;;;0.40;;
6661;SDS011;3367;48.714;8.994;2023-03-24T14:56:59;3.13;;;0.50;;
6661;SDS011;3367;48.714;8.994;2023-03-24T14:59:30;0.80;;;0.60;;
6661;SDS011;3367;48.714;8.994;2023-03-24T15:02:06;0.73;;;0.53;;
6661;SDS011;3367;48.714;8.994;2023-03-24T15:07:45;2.53;;;1.07;;
6661;SDS011;3367;48.714;8.994;2023-03-24T15:10:26;2.63;;;1.03;;
6661;SDS011;3367;48.714;8.994;2023-03-24T15:12:58;2.53;;;0.93;;
6661;SDS011;3367;48.714;8.994;2023-03-24T15:15:25;3.53;;;0.73;;
6661;SDS011;3367;48.714;8.994;2023-03-24T15:17:53;2.90;;;0.87;;
6661;SDS011;3367;48.714;8.994;2023-03-24T15:20:20;1.97;;;1.13;;
6661;SDS011;3367;48.714;8.994;2023-03-24T15:22:49;3.10;;;0.60;;
6661;SDS011;3367;48.714;8.994;2023-03-24T15:25:19;1.10;;;0.90;;
6661;SDS011;3367;48.714;8.994;2023-03-24T15:27:53;0.80;;;0.60;;
6661;SDS011;3367;48.714;8.994;2023-03-24T15:30:20;9.03;;;0.80;;
6661;SDS011;3367;48.714;8.994;2023-03-24T15:32:48;0.73;;;0.57;;
6661;SDS011;3367;48.714;8.994;2023-03-24T15:35:16;0.83;;;0.77;;
6661;SDS011;3367;48.714;8.994;2023-03-24T15:37:48;0.70;;;0.70;;
6661;SDS011;3367;48.714;8.994;2023-03-24T15:40:30;1.93;;;0.80;;
6661;SDS011;3367;48.714;8.994;2023-03-24T15:43:01;0.70;;;0.50;;
6661;SDS011;3367;48.714;8.994;2023-03-24T15:45:29;1.63;;;0.67;;
6661;SDS011;3367;48.714;8.994;2023-03-24T15:48:01;0.80;;;0.50;;
6661;SDS011;3367;48.714;8.994;2023-03-24T15:50:33;2.40;;;0.90;;
6661;SDS011;3367;48.714;8.994;2023-03-24T15:53:02;1.37;;;0.60;;
6661;SDS011;3367;48.714;8.994;2023-03-24T15:55:31;1.70;;;0.57;;
6661;SDS011;3367;48.714;8.994;2023-03-24T15:58:12;0.80;;;0.40;;
6661;SDS011;3367;48.714;8.994;2023-03-24T16:00:47;0.70;;;0.70;;
6661;SDS011;3367;48.714;8.994;2023-03-24T16:03:17;1.20;;;0.63;;
6661;SDS011;3367;48.714;8.994;2023-03-24T16:05:45;1.33;;;0.70;;
6661;SDS011;3367;48.714;8.994;2023-03-24T16:08:24;0.80;;;0.70;;